Terminal Aerodrome Forecast
Issued by NWS

Home | Current Version | Previous Version | Text Only | Print | Product List | Glossary On
Versions: 1 2 3 4 5 6 7 8 9 10 11 12 13 14
000
FTUS44 KTSA 231720
TAFBVO
TAF
KBVO 231720Z 2318/2418 19010G17KT P6SM VCSH SCT025 OVC060
      TEMPO 2319/2323 4SM -TSRA BKN025CB
     FM240000 18010KT P6SM OVC050
     FM240300 17007KT P6SM BKN250
     FM241500 20010G17KT P6SM BKN250=

USA.gov is the U.S. government's official web portal to all federal, state and local government web resources and services.